Time;durP1;ratioP1;P1;durP2;ratioP2;P2;SDS_P1;SDS_P2;PMS_P1;PMS_P2;Temp;Humidity;BMP_temperature;BMP_pressure;BME280_temperature;BME280_humidity;BME280_pressure;Samples;Min_cycle;Max_cycle;Signal;HPM_P1;HPM_P2
2024/01/15 00:01:08;;;;;;;5.55;1.15;;;;;;;;;;5072973;28;20063;-78
2024/01/15 00:03:40;;;;;;;5.22;1.20;;;;;;;;;;5073104;28;20041;-78
2024/01/15 00:06:16;;;;;;;5.88;1.20;;;;;;;;;;5073410;28;20059;-78
2024/01/15 00:08:46;;;;;;;8.02;1.40;;;;;;;;;;5072889;28;20055;-78
2024/01/15 00:11:16;;;;;;;6.80;1.30;;;;;;;;;;5074074;28;20055;-78
2024/01/15 00:13:46;;;;;;;5.55;1.55;;;;;;;;;;5073428;28;20057;-79
2024/01/15 00:16:16;;;;;;;11.88;1.75;;;;;;;;;;5056411;28;20045;-78
2024/01/15 00:18:46;;;;;;;10.20;1.60;;;;;;;;;;5071984;28;20052;-77
2024/01/15 00:21:17;;;;;;;13.30;1.77;;;;;;;;;;5074280;28;20059;-78
2024/01/15 00:23:47;;;;;;;;;;;;;;;;;;5082232;28;20040;-78
2024/01/15 00:26:17;;;;;;;5.63;1.27;;;;;;;;;;5092916;28;19927;-77
2024/01/15 00:28:47;;;;;;;10.70;1.25;;;;;;;;;;5093522;28;20047;-77
2024/01/15 00:31:17;;;;;;;8.55;1.27;;;;;;;;;;5093688;28;20051;-77
2024/01/15 00:33:49;;;;;;;8.05;1.52;;;;;;;;;;5071684;28;20052;-77
2024/01/15 00:36:22;;;;;;;9.48;1.50;;;;;;;;;;5052510;28;20053;-78
2024/01/15 00:38:53;;;;;;;1.35;0.65;;;;;;;;;;5071035;28;20067;-77
2024/01/15 00:41:23;;;;;;;1.65;0.30;;;;;;;;;;5052587;28;20044;-76
2024/01/15 00:43:54;;;;;;;6.40;0.60;;;;;;;;;;5070617;28;20048;-77
2024/01/15 00:46:24;;;;;;;6.78;0.50;;;;;;;;;;5071056;28;20036;-77
2024/01/15 00:48:54;;;;;;;7.93;0.70;;;;;;;;;;5070609;28;20044;-76
2024/01/15 00:51:24;;;;;;;3.33;0.60;;;;;;;;;;5053608;28;20044;-76
2024/01/15 00:53:54;;;;;;;3.40;0.50;;;;;;;;;;5071155;28;20051;-76
2024/01/15 00:56:24;;;;;;;3.88;0.20;;;;;;;;;;5070141;28;20052;-75
2024/01/15 00:58:54;;;;;;;1.05;0.50;;;;;;;;;;5053355;28;20494;-76
2024/01/15 01:01:23;;;;;;;2.33;0.40;;;;;;;;;;5070484;28;20052;-77
2024/01/15 01:03:54;;;;;;;2.63;0.28;;;;;;;;;;5071134;28;20457;-75
2024/01/15 01:06:23;;;;;;;0.20;0.10;;;;;;;;;;5070859;28;20063;-76
2024/01/15 01:08:54;;;;;;;0.52;0.10;;;;;;;;;;5070847;28;20052;-77
2024/01/15 01:11:24;;;;;;;1.38;0.30;;;;;;;;;;5070351;28;20056;-76
2024/01/15 01:13:53;;;;;;;2.00;0.20;;;;;;;;;;5053641;28;20040;-76
2024/01/15 01:16:23;;;;;;;2.55;0.20;;;;;;;;;;5070458;28;20083;-76
2024/01/15 01:18:53;;;;;;;1.70;0.17;;;;;;;;;;5068672;28;20056;-78
2024/01/15 01:21:27;;;;;;;1.23;0.30;;;;;;;;;;5070418;28;20056;-76
2024/01/15 01:23:57;;;;;;;2.30;0.38;;;;;;;;;;5070913;28;20510;-76
2024/01/15 01:26:27;;;;;;;3.53;0.40;;;;;;;;;;5070762;28;20048;-77
2024/01/15 01:28:57;;;;;;;1.48;0.30;;;;;;;;;;5053262;28;20221;-77
2024/01/15 01:31:27;;;;;;;2.47;0.30;;;;;;;;;;5051812;28;20051;-77
2024/01/15 01:33:58;;;;;;;1.40;0.30;;;;;;;;;;5070900;28;20048;-76
2024/01/15 01:36:28;;;;;;;2.42;0.20;;;;;;;;;;5035722;28;20059;-77
2024/01/15 01:38:58;;;;;;;0.20;0.20;;;;;;;;;;5052463;28;20482;-76
2024/01/15 01:41:28;;;;;;;3.40;0.38;;;;;;;;;;5070388;28;20048;-76
2024/01/15 01:43:58;;;;;;;3.67;0.40;;;;;;;;;;5052278;28;20048;-76
2024/01/15 01:46:29;;;;;;;2.08;0.63;;;;;;;;;;5051567;28;20119;-77
2024/01/15 01:49:05;;;;;;;2.42;0.63;;;;;;;;;;5070850;28;20040;-76
2024/01/15 01:51:39;;;;;;;5.78;0.40;;;;;;;;;;5051872;28;20056;-73
2024/01/15 01:54:12;;;;;;;0.85;0.22;;;;;;;;;;5073877;28;20501;-74
2024/01/15 01:56:44;;;;;;;2.97;0.30;;;;;;;;;;5074207;28;20048;-77
2024/01/15 01:59:14;;;;;;;1.20;0.50;;;;;;;;;;5074145;28;20052;-75
2024/01/15 02:01:45;;;;;;;4.50;0.30;;;;;;;;;;5074347;28;20044;-77
2024/01/15 02:04:15;;;;;;;3.13;0.30;;;;;;;;;;5074156;28;20083;-78
2024/01/15 02:06:50;;;;;;;3.42;0.75;;;;;;;;;;5074987;28;20383;-77
2024/01/15 02:09:21;;;;;;;0.65;0.30;;;;;;;;;;5076196;28;20055;-78
2024/01/15 02:11:51;;;;;;;1.08;0.32;;;;;;;;;;5074991;28;20055;-77
2024/01/15 02:14:22;;;;;;;2.13;0.20;;;;;;;;;;5076045;28;20403;-76
2024/01/15 02:16:53;;;;;;;2.83;0.30;;;;;;;;;;5058876;28;20055;-76
2024/01/15 02:19:24;;;;;;;1.10;0.20;;;;;;;;;;5057316;28;20047;-77
2024/01/15 02:21:54;;;;;;;1.55;0.30;;;;;;;;;;5075842;28;20049;-78
2024/01/15 02:24:25;;;;;;;1.00;0.30;;;;;;;;;;5075758;28;20390;-75
2024/01/15 02:26:55;;;;;;;3.70;0.43;;;;;;;;;;5074929;28;20497;-78
2024/01/15 02:29:25;;;;;;;2.75;0.35;;;;;;;;;;5057761;28;20128;-78
2024/01/15 02:31:55;;;;;;;1.25;0.20;;;;;;;;;;5075617;28;20044;-79
2024/01/15 02:34:31;;;;;;;3.58;0.60;;;;;;;;;;5075661;28;20056;-74
2024/01/15 02:37:02;;;;;;;2.58;0.73;;;;;;;;;;5058216;28;20052;-78
2024/01/15 02:39:33;;;;;;;2.85;0.25;;;;;;;;;;5076509;28;20052;-75
2024/01/15 02:42:07;;;;;;;1.98;0.20;;;;;;;;;;5058638;28;20040;-76
2024/01/15 02:44:36;;;;;;;2.05;0.30;;;;;;;;;;5075479;28;20044;-77
2024/01/15 02:47:07;;;;;;;3.05;0.25;;;;;;;;;;5056456;28;20395;-78
2024/01/15 02:49:37;;;;;;;6.68;0.40;;;;;;;;;;5075858;28;20044;-77
2024/01/15 02:52:10;;;;;;;2.10;0.20;;;;;;;;;;5076024;28;20352;-74
2024/01/15 02:54:40;;;;;;;2.63;0.30;;;;;;;;;;5075427;28;20044;-78
2024/01/15 02:57:10;;;;;;;1.20;0.30;;;;;;;;;;5075696;28;20040;-76
2024/01/15 02:59:41;;;;;;;0.63;0.25;;;;;;;;;;5074935;28;20052;-75
2024/01/15 03:02:11;;;;;;;1.23;0.30;;;;;;;;;;5075684;28;20052;-78
2024/01/15 03:04:45;;;;;;;1.55;0.47;;;;;;;;;;5074985;28;20051;-77
2024/01/15 03:07:16;;;;;;;1.75;0.20;;;;;;;;;;5076178;28;20048;-80
2024/01/15 03:09:47;;;;;;;1.67;0.20;;;;;;;;;;5074132;28;20059;-77
2024/01/15 03:12:18;;;;;;;1.48;0.32;;;;;;;;;;5075253;28;20052;-77
2024/01/15 03:14:48;;;;;;;0.30;0.20;;;;;;;;;;5057803;28;20052;-78
2024/01/15 03:17:18;;;;;;;3.03;0.35;;;;;;;;;;5074837;28;20048;-75
2024/01/15 03:19:49;;;;;;;0.32;0.22;;;;;;;;;;5094194;28;20058;-77
2024/01/15 03:22:19;;;;;;;1.10;0.17;;;;;;;;;;5094902;28;20391;-76
2024/01/15 03:24:49;;;;;;;0.57;0.13;;;;;;;;;;5094833;28;20391;-74
2024/01/15 03:27:19;;;;;;;1.17;0.20;;;;;;;;;;5095677;28;20059;-75
2024/01/15 03:29:50;;;;;;;1.15;0.30;;;;;;;;;;5095376;28;20415;-75
2024/01/15 03:32:20;;;;;;;3.22;0.30;;;;;;;;;;5077261;28;20051;-75
2024/01/15 03:34:52;;;;;;;0.88;0.43;;;;;;;;;;5073628;28;20495;-75
2024/01/15 03:37:22;;;;;;;0.60;0.28;;;;;;;;;;5074553;28;20049;-75
2024/01/15 03:39:52;;;;;;;0.75;0.40;;;;;;;;;;5056955;28;20048;-75
2024/01/15 03:42:22;;;;;;;1.00;0.25;;;;;;;;;;5074333;28;20063;-74
2024/01/15 03:44:54;;;;;;;3.60;0.28;;;;;;;;;;5055922;28;20048;-76
2024/01/15 03:47:26;;;;;;;2.47;0.20;;;;;;;;;;5055994;28;20067;-77
2024/01/15 03:49:56;;;;;;;1.38;0.20;;;;;;;;;;5074481;28;20073;-77
2024/01/15 03:52:26;;;;;;;4.03;0.20;;;;;;;;;;5074495;28;20402;-76
2024/01/15 03:54:56;;;;;;;1.88;0.22;;;;;;;;;;5073986;28;20063;-76
2024/01/15 03:57:26;;;;;;;1.27;0.20;;;;;;;;;;5074222;28;20052;-76
2024/01/15 03:59:57;;;;;;;0.35;0.30;;;;;;;;;;5074275;28;20041;-76
2024/01/15 04:02:27;;;;;;;5.63;0.50;;;;;;;;;;5074377;28;20059;-76
2024/01/15 04:04:57;;;;;;;6.53;0.57;;;;;;;;;;5074368;28;20049;-76
2024/01/15 04:07:28;;;;;;;2.55;0.20;;;;;;;;;;5073904;28;20047;-76
2024/01/15 04:09:59;;;;;;;1.90;0.20;;;;;;;;;;5073727;28;20040;-76
2024/01/15 04:12:29;;;;;;;1.73;0.28;;;;;;;;;;5073803;28;20045;-76
2024/01/15 04:14:59;;;;;;;2.72;0.30;;;;;;;;;;5073877;28;20041;-77
2024/01/15 04:17:29;;;;;;;3.78;0.40;;;;;;;;;;5073648;28;20049;-77
2024/01/15 04:19:59;;;;;;;2.28;0.30;;;;;;;;;;5055666;28;20060;-76
2024/01/15 04:22:31;;;;;;;;;;;;;;;;;;5074664;28;20053;-76
2024/01/15 04:25:01;;;;;;;2.95;0.32;;;;;;;;;;5073884;28;19927;-77
2024/01/15 04:27:31;;;;;;;6.25;0.40;;;;;;;;;;5073906;28;20056;-77
2024/01/15 04:30:01;;;;;;;1.00;0.40;;;;;;;;;;5073236;28;20036;-76
2024/01/15 04:32:31;;;;;;;3.78;0.28;;;;;;;;;;5073628;28;20055;-76
2024/01/15 04:35:01;;;;;;;2.83;0.30;;;;;;;;;;5073935;28;20048;-76
2024/01/15 04:37:31;;;;;;;2.30;0.20;;;;;;;;;;5073727;28;20044;-76
2024/01/15 04:40:01;;;;;;;3.22;0.25;;;;;;;;;;5056070;28;20487;-76
2024/01/15 04:42:31;;;;;;;0.73;0.28;;;;;;;;;;5073174;28;20482;-75
2024/01/15 04:45:01;;;;;;;2.58;0.30;;;;;;;;;;5054422;28;20044;-76
2024/01/15 04:47:31;;;;;;;1.15;0.30;;;;;;;;;;5073726;28;20071;-76
2024/01/15 04:50:01;;;;;;;1.75;0.40;;;;;;;;;;5072987;28;20048;-75
2024/01/15 04:52:31;;;;;;;1.42;0.40;;;;;;;;;;5073384;28;20052;-76
2024/01/15 04:55:01;;;;;;;1.02;0.30;;;;;;;;;;5072773;28;20063;-75
2024/01/15 04:57:31;;;;;;;1.58;0.47;;;;;;;;;;5073222;28;20045;-76
2024/01/15 05:00:05;;;;;;;2.03;0.28;;;;;;;;;;5073042;28;20047;-76
2024/01/15 05:02:35;;;;;;;3.95;0.50;;;;;;;;;;5073203;28;20475;-76
2024/01/15 05:05:06;;;;;;;2.13;0.30;;;;;;;;;;5072899;28;20067;-75
2024/01/15 05:07:36;;;;;;;2.63;0.68;;;;;;;;;;5054651;28;20060;-74
2024/01/15 05:10:07;;;;;;;1.35;0.30;;;;;;;;;;5073044;28;20049;-75
2024/01/15 05:12:38;;;;;;;1.02;0.32;;;;;;;;;;5072835;28;20059;-74
2024/01/15 05:15:09;;;;;;;1.42;0.35;;;;;;;;;;5072661;28;20049;-76
2024/01/15 05:17:41;;;;;;;1.17;0.40;;;;;;;;;;5073402;28;20044;-74
2024/01/15 05:20:11;;;;;;;2.40;0.30;;;;;;;;;;5072853;28;20052;-75
2024/01/15 05:22:41;;;;;;;0.22;0.10;;;;;;;;;;5072956;28;20052;-75
2024/01/15 05:25:11;;;;;;;0.35;0.20;;;;;;;;;;5072776;28;20052;-74
2024/01/15 05:27:41;;;;;;;3.47;0.52;;;;;;;;;;5073680;28;20040;-74
2024/01/15 05:30:12;;;;;;;1.23;0.50;;;;;;;;;;5060220;28;20106;-74
2024/01/15 05:32:41;;;;;;;0.25;0.10;;;;;;;;;;5077136;28;20041;-75
2024/01/15 05:35:13;;;;;;;0.43;0.20;;;;;;;;;;5077507;28;20049;-75
2024/01/15 05:37:45;;;;;;;1.17;0.30;;;;;;;;;;5080550;28;20036;-75
2024/01/15 05:40:15;;;;;;;3.50;0.30;;;;;;;;;;5084605;28;20071;-75
2024/01/15 05:42:44;;;;;;;0.40;0.20;;;;;;;;;;5083027;28;20045;-74
2024/01/15 05:45:15;;;;;;;0.75;0.20;;;;;;;;;;5081548;28;20064;-74
2024/01/15 05:47:45;;;;;;;0.25;0.10;;;;;;;;;;5078341;28;20045;-76
2024/01/15 05:50:18;;;;;;;0.32;0.20;;;;;;;;;;5076860;28;20051;-75
2024/01/15 05:52:48;;;;;;;0.70;0.20;;;;;;;;;;5076614;28;20036;-75
2024/01/15 05:55:18;;;;;;;2.55;0.20;;;;;;;;;;5074669;28;20056;-75
2024/01/15 05:57:50;;;;;;;1.58;0.10;;;;;;;;;;5076711;28;20055;-76
2024/01/15 06:00:21;;;;;;;0.47;0.10;;;;;;;;;;5076630;28;20048;-75
2024/01/15 06:02:51;;;;;;;2.60;0.80;;;;;;;;;;5058381;28;20063;-75
2024/01/15 06:05:21;;;;;;;1.75;0.63;;;;;;;;;;5076870;28;20040;-75
2024/01/15 06:07:50;;;;;;;1.20;0.30;;;;;;;;;;5076126;28;20407;-76
2024/01/15 06:10:20;;;;;;;1.38;0.30;;;;;;;;;;5058785;28;20415;-78
2024/01/15 06:12:50;;;;;;;2.20;0.32;;;;;;;;;;5076183;28;20056;-77
2024/01/15 06:15:21;;;;;;;2.40;0.30;;;;;;;;;;5076170;28;20037;-77
2024/01/15 06:17:50;;;;;;;1.80;0.20;;;;;;;;;;5076764;28;20051;-77
2024/01/15 06:20:20;;;;;;;1.17;0.30;;;;;;;;;;5076610;28;20399;-76
2024/01/15 06:22:50;;;;;;;4.45;0.25;;;;;;;;;;5075732;28;20048;-76
2024/01/15 06:25:20;;;;;;;2.13;0.40;;;;;;;;;;5075780;28;20055;-76
2024/01/15 06:27:51;;;;;;;1.45;0.22;;;;;;;;;;5075686;28;20045;-76
2024/01/15 06:30:21;;;;;;;2.38;0.30;;;;;;;;;;5075975;28;20044;-76
2024/01/15 06:32:51;;;;;;;1.35;0.20;;;;;;;;;;5075796;28;20398;-76
2024/01/15 06:35:21;;;;;;;0.30;0.20;;;;;;;;;;5075699;28;20049;-76
2024/01/15 06:37:51;;;;;;;0.57;0.30;;;;;;;;;;5075588;28;20047;-77
2024/01/15 06:40:21;;;;;;;1.42;0.40;;;;;;;;;;5075551;28;20059;-76
2024/01/15 06:42:51;;;;;;;0.57;0.20;;;;;;;;;;5075242;28;20048;-76
2024/01/15 06:45:21;;;;;;;4.03;0.40;;;;;;;;;;5075895;28;20503;-77
2024/01/15 06:47:51;;;;;;;0.77;0.20;;;;;;;;;;5056991;28;20053;-76
2024/01/15 06:50:21;;;;;;;2.08;0.30;;;;;;;;;;5075435;28;20052;-79
2024/01/15 06:52:50;;;;;;;1.55;0.90;;;;;;;;;;5075303;28;20044;-77
2024/01/15 06:55:21;;;;;;;4.80;0.22;;;;;;;;;;5075374;28;20411;-77
2024/01/15 06:57:51;;;;;;;1.35;0.20;;;;;;;;;;5056712;28;20048;-76
2024/01/15 07:00:21;;;;;;;0.22;0.20;;;;;;;;;;5075123;28;20045;-76
2024/01/15 07:02:51;;;;;;;0.40;0.28;;;;;;;;;;5075340;28;20051;-76
2024/01/15 07:05:22;;;;;;;2.33;0.60;;;;;;;;;;5075082;28;20052;-76
2024/01/15 07:07:51;;;;;;;1.55;0.20;;;;;;;;;;5075903;28;20053;-76
2024/01/15 07:10:21;;;;;;;3.20;0.50;;;;;;;;;;5075630;28;20044;-76
2024/01/15 07:12:51;;;;;;;1.15;0.22;;;;;;;;;;5075517;28;20399;-77
2024/01/15 07:15:22;;;;;;;0.75;0.20;;;;;;;;;;5075314;28;20045;-76
2024/01/15 07:17:52;;;;;;;2.10;0.40;;;;;;;;;;5075216;28;20375;-76
2024/01/15 07:20:23;;;;;;;1.65;0.20;;;;;;;;;;5075173;28;20044;-77
2024/01/15 07:22:54;;;;;;;2.08;0.30;;;;;;;;;;5075271;28;20056;-76
2024/01/15 07:25:25;;;;;;;4.15;0.30;;;;;;;;;;5074932;28;20048;-76
2024/01/15 07:27:55;;;;;;;;;;;;;;;;;;5075290;28;20390;-75
2024/01/15 07:30:25;;;;;;;0.38;0.20;;;;;;;;;;5075180;28;19920;-77
2024/01/15 07:32:55;;;;;;;1.02;0.22;;;;;;;;;;5074587;28;20049;-76
2024/01/15 07:35:25;;;;;;;3.75;0.30;;;;;;;;;;5056991;28;20071;-76
2024/01/15 07:37:55;;;;;;;1.65;0.63;;;;;;;;;;5074348;28;20351;-76
2024/01/15 07:40:25;;;;;;;3.63;0.40;;;;;;;;;;5074610;28;20055;-76
2024/01/15 07:42:57;;;;;;;0.28;0.20;;;;;;;;;;5074706;28;20037;-77
2024/01/15 07:45:27;;;;;;;0.80;0.30;;;;;;;;;;5074970;28;20049;-76
2024/01/15 07:47:57;;;;;;;3.00;0.20;;;;;;;;;;5074571;28;20032;-77
2024/01/15 07:50:27;;;;;;;0.65;0.30;;;;;;;;;;5073750;28;20168;-77
2024/01/15 07:52:57;;;;;;;2.78;0.22;;;;;;;;;;5074319;28;20376;-77
2024/01/15 07:55:27;;;;;;;2.03;0.30;;;;;;;;;;5074463;28;20516;-77
2024/01/15 07:57:59;;;;;;;2.20;0.57;;;;;;;;;;5074451;28;20406;-76
2024/01/15 08:00:44;;;;;;;0.30;0.20;;;;;;;;;;5074646;28;20041;-76
2024/01/15 08:03:15;;;;;;;3.30;0.38;;;;;;;;;;5057081;28;20040;-76
2024/01/15 08:05:44;;;;;;;1.73;0.30;;;;;;;;;;5055524;28;20048;-75
2024/01/15 08:08:14;;;;;;;2.92;0.52;;;;;;;;;;5074620;28;20048;-76
2024/01/15 08:10:44;;;;;;;3.42;0.43;;;;;;;;;;5073978;28;20403;-75
2024/01/15 08:13:14;;;;;;;1.10;0.20;;;;;;;;;;5074065;28;20048;-76
2024/01/15 08:15:44;;;;;;;1.02;0.35;;;;;;;;;;5074153;28;20048;-76
2024/01/15 08:18:17;;;;;;;1.75;0.30;;;;;;;;;;5073606;28;20040;-76
2024/01/15 08:20:48;;;;;;;0.65;0.20;;;;;;;;;;5073686;28;20048;-76
2024/01/15 08:23:19;;;;;;;1.33;0.30;;;;;;;;;;5073949;28;20406;-76
2024/01/15 08:25:50;;;;;;;0.73;0.30;;;;;;;;;;5073808;28;20049;-75
2024/01/15 08:28:20;;;;;;;0.77;0.20;;;;;;;;;;5073702;28;20040;-76
2024/01/15 08:30:50;;;;;;;1.45;0.40;;;;;;;;;;5073493;28;20044;-76
2024/01/15 08:33:21;;;;;;;2.85;0.40;;;;;;;;;;5072767;28;20056;-76
2024/01/15 08:35:52;;;;;;;2.35;0.35;;;;;;;;;;5073410;28;20044;-76
2024/01/15 08:38:22;;;;;;;0.90;0.30;;;;;;;;;;5054889;28;20158;-76
2024/01/15 08:40:53;;;;;;;2.53;0.40;;;;;;;;;;5073347;28;20048;-76
2024/01/15 08:43:23;;;;;;;0.30;0.20;;;;;;;;;;5072810;28;20059;-76
2024/01/15 08:45:54;;;;;;;3.17;0.50;;;;;;;;;;5055165;28;20053;-78
2024/01/15 08:48:26;;;;;;;2.05;0.50;;;;;;;;;;5073160;28;20467;-76
2024/01/15 08:50:56;;;;;;;2.15;0.38;;;;;;;;;;5073793;28;20056;-76
2024/01/15 08:53:27;;;;;;;4.47;0.43;;;;;;;;;;5073262;28;20056;-76
2024/01/15 08:55:58;;;;;;;3.78;0.50;;;;;;;;;;5073055;28;20052;-76
2024/01/15 08:58:29;;;;;;;2.17;0.50;;;;;;;;;;5073455;28;20502;-77
2024/01/15 09:00:58;;;;;;;1.08;0.40;;;;;;;;;;5073032;28;20053;-77
2024/01/15 09:03:28;;;;;;;1.38;0.32;;;;;;;;;;5072144;28;20048;-77
2024/01/15 09:05:58;;;;;;;2.45;0.50;;;;;;;;;;5072979;28;20414;-76
2024/01/15 09:08:28;;;;;;;3.92;0.50;;;;;;;;;;5072674;28;20514;-77
2024/01/15 09:11:02;;;;;;;4.10;0.70;;;;;;;;;;5072600;28;20056;-78
2024/01/15 09:13:33;;;;;;;1.50;0.43;;;;;;;;;;5073528;28;20364;-76
2024/01/15 09:16:04;;;;;;;3.00;0.60;;;;;;;;;;5073409;28;20048;-77
2024/01/15 09:18:35;;;;;;;3.58;0.47;;;;;;;;;;5072836;28;20041;-76
2024/01/15 09:21:06;;;;;;;5.60;0.50;;;;;;;;;;5072890;28;20041;-76
2024/01/15 09:23:36;;;;;;;3.70;0.93;;;;;;;;;;5073013;28;20498;-76
2024/01/15 09:26:09;;;;;;;2.38;0.68;;;;;;;;;;5073433;28;20505;-77
2024/01/15 09:28:39;;;;;;;4.07;0.55;;;;;;;;;;5072860;28;20055;-77
2024/01/15 09:31:09;;;;;;;4.53;0.80;;;;;;;;;;5069169;28;20479;-77
2024/01/15 09:33:39;;;;;;;7.68;0.55;;;;;;;;;;5065582;28;20055;-77
2024/01/15 09:36:11;;;;;;;1.75;0.50;;;;;;;;;;5072079;28;20040;-76
2024/01/15 09:38:42;;;;;;;1.75;0.40;;;;;;;;;;5078249;28;20051;-76
2024/01/15 09:41:13;;;;;;;12.88;0.80;;;;;;;;;;5071798;28;20522;-76
2024/01/15 09:43:44;;;;;;;2.03;0.60;;;;;;;;;;5073090;28;20051;-76
2024/01/15 09:46:15;;;;;;;1.55;0.50;;;;;;;;;;5067912;28;20049;-76
2024/01/15 09:48:45;;;;;;;5.88;0.55;;;;;;;;;;5073040;28;20063;-76
2024/01/15 09:51:16;;;;;;;6.65;0.70;;;;;;;;;;5055335;28;20056;-76
2024/01/15 09:53:47;;;;;;;5.22;1.17;;;;;;;;;;5075770;28;20048;-75
2024/01/15 09:56:18;;;;;;;4.43;1.02;;;;;;;;;;5076759;28;20051;-76
2024/01/15 09:58:51;;;;;;;4.68;1.17;;;;;;;;;;5071640;28;20510;-77
2024/01/15 10:01:22;;;;;;;5.80;1.35;;;;;;;;;;5072443;28;20048;-76
2024/01/15 10:03:55;;;;;;;5.00;1.33;;;;;;;;;;5072660;28;20067;-76
2024/01/15 10:06:28;;;;;;;6.13;1.23;;;;;;;;;;5072961;28;20051;-77
2024/01/15 10:09:01;;;;;;;;;;;;;;;;;;5056119;28;20047;-77
2024/01/15 10:11:31;;;;;;;3.30;1.27;;;;;;;;;;5053965;28;19920;-77
2024/01/15 10:14:02;;;;;;;4.80;1.55;;;;;;;;;;5073312;28;20059;-87
2024/01/15 10:16:32;;;;;;;10.25;2.08;;;;;;;;;;5059156;28;20041;-87
2024/01/15 10:19:03;;;;;;;5.30;1.77;;;;;;;;;;5058383;28;20048;-87
2024/01/15 10:21:35;;;;;;;5.60;1.73;;;;;;;;;;5057806;28;20044;-84
2024/01/15 10:24:05;;;;;;;4.22;1.75;;;;;;;;;;5058621;28;20037;-85
2024/01/15 10:26:36;;;;;;;4.00;1.80;;;;;;;;;;5041901;28;20056;-84
2024/01/15 10:29:06;;;;;;;5.50;1.50;;;;;;;;;;5057473;28;20052;-85
2024/01/15 10:31:38;;;;;;;3.65;1.48;;;;;;;;;;5057036;28;20052;-86
2024/01/15 10:34:15;;;;;;;5.63;1.45;;;;;;;;;;5073760;28;20047;-85
2024/01/15 10:36:47;;;;;;;7.18;1.70;;;;;;;;;;5057467;28;20045;-84
2024/01/15 10:39:18;;;;;;;6.90;1.88;;;;;;;;;;5057461;28;20051;-85
2024/01/15 10:41:50;;;;;;;4.32;1.55;;;;;;;;;;5075662;28;20463;-85
2024/01/15 10:44:20;;;;;;;8.40;1.70;;;;;;;;;;5034099;28;20403;-85
2024/01/15 10:46:50;;;;;;;6.40;1.65;;;;;;;;;;5052409;28;20498;-84
2024/01/15 10:49:21;;;;;;;5.15;1.58;;;;;;;;;;5038857;28;20056;-86
2024/01/15 10:51:53;;;;;;;8.40;1.70;;;;;;;;;;5055067;28;20064;-85
2024/01/15 10:54:24;;;;;;;5.55;1.42;;;;;;;;;;5072678;28;20033;-85
2024/01/15 10:56:57;;;;;;;4.38;1.20;;;;;;;;;;5054350;28;20483;-86
2024/01/15 10:59:28;;;;;;;3.55;1.20;;;;;;;;;;5053969;28;20049;-84
2024/01/15 11:02:01;;;;;;;6.93;1.38;;;;;;;;;;5064201;28;20067;-85
2024/01/15 11:04:32;;;;;;;6.07;0.85;;;;;;;;;;5062002;28;20048;-84
2024/01/15 11:07:06;;;;;;;10.02;1.15;;;;;;;;;;5061891;28;20060;-87
2024/01/15 11:09:37;;;;;;;2.22;0.68;;;;;;;;;;5058843;28;20070;-86
2024/01/15 11:12:17;;;;;;;3.13;0.65;;;;;;;;;;5018555;28;20479;-86
2024/01/15 11:14:50;;;;;;;2.33;0.73;;;;;;;;;;5035054;28;20094;-86
2024/01/15 11:17:20;;;;;;;5.57;1.15;;;;;;;;;;5017672;28;20443;-84
2024/01/15 11:19:51;;;;;;;4.10;1.10;;;;;;;;;;5034755;28;20049;-85
2024/01/15 11:22:47;;;;;;;8.32;1.33;;;;;;;;;;5033787;28;20052;-88
2024/01/15 11:25:20;;;;;;;5.18;1.00;;;;;;;;;;5033245;28;20526;-84
2024/01/15 11:27:52;;;;;;;3.35;0.98;;;;;;;;;;5062515;28;20049;-85
2024/01/15 11:30:26;;;;;;;6.65;1.15;;;;;;;;;;5069101;28;20041;-84
2024/01/15 11:32:57;;;;;;;2.85;0.85;;;;;;;;;;5044341;28;20052;-86
2024/01/15 11:35:49;;;;;;;5.38;0.68;;;;;;;;;;5054435;28;20051;-86
2024/01/15 11:38:28;;;;;;;;;;;;;;;;;;5056927;28;20590;-84
2024/01/15 11:41:01;;;;;;;4.18;1.35;;;;;;;;;;5072060;28;19920;-88
2024/01/15 11:43:33;;;;;;;3.78;1.40;;;;;;;;;;5054589;28;20064;-88
2024/01/15 11:46:03;;;;;;;4.93;1.52;;;;;;;;;;5068246;28;20048;-90
2024/01/15 11:48:47;;;;;;;4.22;1.30;;;;;;;;;;5068974;28;20055;-85
2024/01/15 11:51:19;;;;;;;3.45;1.70;;;;;;;;;;5037830;28;20059;-86
2024/01/15 11:53:56;;;;;;;4.10;1.40;;;;;;;;;;5054274;28;20048;-86
2024/01/15 11:56:27;;;;;;;3.97;1.23;;;;;;;;;;5024526;28;20495;-85
2024/01/15 11:58:58;;;;;;;5.18;1.88;;;;;;;;;;5033277;28;20041;-86
2024/01/15 12:01:32;;;;;;;3.55;1.60;;;;;;;;;;5018444;28;20056;-85
2024/01/15 12:04:03;;;;;;;3.65;1.77;;;;;;;;;;5033759;28;20049;-90
2024/01/15 12:06:35;;;;;;;5.07;1.58;;;;;;;;;;5032601;28;20509;-85
2024/01/15 12:09:09;;;;;;;6.15;3.00;;;;;;;;;;5034365;28;20064;-80
2024/01/15 12:11:46;;;;;;;5.95;1.65;;;;;;;;;;5030746;28;20049;-79
2024/01/15 12:14:17;;;;;;;4.00;2.00;;;;;;;;;;5029589;28;20404;-81
2024/01/15 12:16:47;;;;;;;4.10;1.90;;;;;;;;;;5031131;28;20042;-81
2024/01/15 12:19:17;;;;;;;6.88;1.70;;;;;;;;;;5038223;28;20060;-79
2024/01/15 12:21:47;;;;;;;4.85;1.60;;;;;;;;;;5016939;28;20049;-81
2024/01/15 12:24:18;;;;;;;3.40;1.42;;;;;;;;;;5032134;28;20496;-83
2024/01/15 12:26:50;;;;;;;4.07;1.20;;;;;;;;;;5051960;28;20045;-83
2024/01/15 12:29:21;;;;;;;6.45;1.50;;;;;;;;;;5052790;28;20037;-81
2024/01/15 12:31:51;;;;;;;4.55;1.50;;;;;;;;;;5048517;28;20518;-81
2024/01/15 12:34:22;;;;;;;11.88;2.13;;;;;;;;;;5051850;28;20056;-80
2024/01/15 12:36:53;;;;;;;5.20;1.55;;;;;;;;;;5041020;28;20412;-80
2024/01/15 12:39:25;;;;;;;6.28;2.05;;;;;;;;;;5031633;28;20504;-81
2024/01/15 12:41:55;;;;;;;3.90;1.55;;;;;;;;;;5052976;28;20060;-82
2024/01/15 12:44:25;;;;;;;5.22;1.95;;;;;;;;;;5056119;28;20044;-80
2024/01/15 12:46:55;;;;;;;7.20;3.35;;;;;;;;;;5061637;28;20044;-79
2024/01/15 12:49:27;;;;;;;10.27;4.75;;;;;;;;;;5041746;28;20045;-79
2024/01/15 12:51:59;;;;;;;10.05;4.88;;;;;;;;;;5042348;28;20057;-79
2024/01/15 12:54:29;;;;;;;8.85;3.00;;;;;;;;;;5043670;28;20048;-78
2024/01/15 12:57:02;;;;;;;7.93;3.58;;;;;;;;;;5059471;28;20067;-80
2024/01/15 12:59:32;;;;;;;14.63;5.07;;;;;;;;;;5067307;28;21636;-83
2024/01/15 13:02:02;;;;;;;4.20;1.80;;;;;;;;;;5081238;28;20418;-79
2024/01/15 13:04:32;;;;;;;3.45;1.70;;;;;;;;;;5050337;28;20056;-81
2024/01/15 13:07:03;;;;;;;4.63;2.30;;;;;;;;;;5050617;28;20048;-81
2024/01/15 13:09:35;;;;;;;7.05;1.92;;;;;;;;;;5075849;28;20050;-78
2024/01/15 13:12:06;;;;;;;5.90;2.90;;;;;;;;;;5111130;28;20409;-79
2024/01/15 13:14:38;;;;;;;47.28;32.10;;;;;;;;;;5091659;28;20503;-79
2024/01/15 13:17:08;;;;;;;5.50;2.53;;;;;;;;;;5099338;28;20070;-79
2024/01/15 13:19:38;;;;;;;8.63;2.90;;;;;;;;;;5072160;28;20048;-80
2024/01/15 13:22:10;;;;;;;9.15;2.13;;;;;;;;;;5090220;28;20056;-80
2024/01/15 13:24:40;;;;;;;6.15;2.85;;;;;;;;;;5089718;28;20402;-81
2024/01/15 13:27:11;;;;;;;3.92;1.88;;;;;;;;;;5071890;28;20055;-79
2024/01/15 13:29:42;;;;;;;3.63;1.40;;;;;;;;;;5072527;28;20047;-78
2024/01/15 13:32:18;;;;;;;7.63;2.00;;;;;;;;;;5090785;28;20063;-79
2024/01/15 13:34:49;;;;;;;5.75;2.65;;;;;;;;;;5072591;28;20055;-81
2024/01/15 13:37:19;;;;;;;6.00;2.47;;;;;;;;;;5090787;28;20063;-79
2024/01/15 13:39:51;;;;;;;3.60;1.90;;;;;;;;;;5092035;28;20450;-82
2024/01/15 13:42:23;;;;;;;4.45;1.80;;;;;;;;;;5089439;28;20065;-79
2024/01/15 13:44:53;;;;;;;4.70;1.50;;;;;;;;;;5053758;28;20055;-78
2024/01/15 13:47:23;;;;;;;3.03;1.45;;;;;;;;;;5090928;28;20486;-81
2024/01/15 13:49:55;;;;;;;6.40;1.42;;;;;;;;;;5095883;28;20067;-82
2024/01/15 13:52:27;;;;;;;3.83;1.88;;;;;;;;;;5078012;28;20063;-79
2024/01/15 13:54:58;;;;;;;3.47;1.48;;;;;;;;;;5076274;28;20044;-82
2024/01/15 13:57:29;;;;;;;3.53;1.30;;;;;;;;;;5096520;28;20052;-83
2024/01/15 13:59:58;;;;;;;3.58;1.80;;;;;;;;;;5076784;28;20517;-79
2024/01/15 14:02:28;;;;;;;4.07;1.50;;;;;;;;;;5078382;28;20051;-82
2024/01/15 14:04:58;;;;;;;6.32;1.75;;;;;;;;;;5095816;28;20036;-82
2024/01/15 14:07:28;;;;;;;7.78;1.67;;;;;;;;;;5095318;28;20043;-84
2024/01/15 14:09:58;;;;;;;4.93;1.80;;;;;;;;;;5094780;28;20044;-80
2024/01/15 14:12:28;;;;;;;4.35;1.42;;;;;;;;;;5077723;28;20056;-81
2024/01/15 14:15:00;;;;;;;7.10;1.67;;;;;;;;;;5095532;28;20070;-80
2024/01/15 14:17:30;;;;;;;2.97;1.70;;;;;;;;;;5076319;28;20048;-81
2024/01/15 14:20:00;;;;;;;3.85;1.80;;;;;;;;;;5078198;28;20048;-80
2024/01/15 14:22:31;;;;;;;4.63;2.78;;;;;;;;;;5092944;28;20032;-82
2024/01/15 14:25:01;;;;;;;3.80;2.33;;;;;;;;;;5094795;28;20036;-83
2024/01/15 14:27:32;;;;;;;5.43;3.40;;;;;;;;;;5095070;28;20040;-81
2024/01/15 14:30:03;;;;;;;4.75;2.90;;;;;;;;;;5092977;28;20071;-81
2024/01/15 14:32:33;;;;;;;6.43;2.90;;;;;;;;;;5071475;28;20060;-81
2024/01/15 14:35:05;;;;;;;7.22;3.38;;;;;;;;;;5095429;28;20036;-81
2024/01/15 14:37:36;;;;;;;4.43;2.63;;;;;;;;;;5076608;28;20075;-80
2024/01/15 14:40:07;;;;;;;4.90;2.35;;;;;;;;;;5094982;28;20044;-81
2024/01/15 14:42:37;;;;;;;;;;;;;;;;;;5094984;28;20056;-83
2024/01/15 14:45:17;;;;;;;5.47;2.78;;;;;;;;;;5076630;28;20412;-81
2024/01/15 14:47:47;;;;;;;3.88;2.70;;;;;;;;;;5094851;28;20051;-84
2024/01/15 14:50:18;;;;;;;3.55;2.30;;;;;;;;;;5077962;28;20055;-81
2024/01/15 14:52:49;;;;;;;5.60;2.28;;;;;;;;;;5095753;28;20048;-80
2024/01/15 14:55:19;;;;;;;5.10;2.45;;;;;;;;;;5091738;28;20044;-83
2024/01/15 14:57:49;;;;;;;6.30;2.42;;;;;;;;;;5095382;28;20059;-80
2024/01/15 15:00:19;;;;;;;3.28;1.95;;;;;;;;;;5075059;28;20052;-81
2024/01/15 15:02:50;;;;;;;4.30;2.08;;;;;;;;;;5094940;28;20488;-80
2024/01/15 15:05:20;;;;;;;4.30;1.73;;;;;;;;;;5095051;28;20048;-80